Terminal Aerodrome Forecast
Issued by NWS

Home | Current Version | Previous Version | Text Only | Print | Product List | Glossary On
Versions: 1 2 3 4 5 6 7 8 9 10 11 12 13 14 15 16 17 18 19 20 21 22 23 24 25 26 27 28 29 30 31 32 33
262
FTUS45 KSLC 271120
TAFEVW
TAF
KEVW 271120Z 2712/2812 20006KT P6SM SCT060 BKN120
     FM271800 27011G18KT P6SM SCT050 BKN100
     FM280200 28009KT P6SM SCT060 BKN120
     FM280600 22006KT P6SM FEW060 SCT120=

USA.gov is the U.S. government's official web portal to all federal, state and local government web resources and services.